LXP386 SCEL-SCCF
Flight info
| Callsign | LXP386 |
|---|---|
| Flight time | 1h 47m |
| Altitude | 34000 |
| Route | DILOK1J DILOK UQ814 MARGU |
| Aircraft | A320/M-SDE3FGHIRWY/LB1 |
Departure
| Time | 2026-04-24 02:35 |
|---|---|
| Airport | Comodoro Arturo Merino Benítez International Airport (SCEL) |
Arrival
| Time | 2026-04-24 04:22 |
|---|---|
| Airport | El Loa Airport (SCCF) |
| Time | Latitude | Longitude | Altitude | Speed | Heading |
|---|---|---|---|---|---|
| 2026-04-24 02:18 | -33.39603 | -70.79606 | 1570 ft | 0 kts | 176° |
| 2026-04-24 02:19 | -33.39602 | -70.79606 | 1570 ft | 2 kts | 176° |
| 2026-04-24 02:19 | -33.39589 | -70.79607 | 1565 ft | 2 kts | 177° |
| 2026-04-24 02:19 | -33.39575 | -70.79608 | 1565 ft | 2 kts | 177° |
| 2026-04-24 02:20 | -33.39561 | -70.79609 | 1565 ft | 2 kts | 177° |
| 2026-04-24 02:20 | -33.39547 | -70.79609 | 1565 ft | 2 kts | 177° |
| 2026-04-24 02:20 | -33.39534 | -70.79610 | 1565 ft | 2 kts | 175° |
| 2026-04-24 02:20 | -33.39526 | -70.79610 | 1564 ft | 1 kts | 140° |
| 2026-04-24 02:21 | -33.39521 | -70.79615 | 1564 ft | 1 kts | 104° |
| 2026-04-24 02:21 | -33.39519 | -70.79622 | 1564 ft | 1 kts | 93° |
| 2026-04-24 02:21 | -33.39519 | -70.79629 | 1564 ft | 1 kts | 90° |
| 2026-04-24 02:21 | -33.39519 | -70.79635 | 1564 ft | 1 kts | 88° |
| 2026-04-24 02:22 | -33.39519 | -70.79642 | 1564 ft | 1 kts | 88° |
| 2026-04-24 02:22 | -33.39519 | -70.79648 | 1564 ft | 0 kts | 88° |
| 2026-04-24 02:24 | -33.39519 | -70.79641 | 1564 ft | 1 kts | 88° |
| 2026-04-24 02:24 | -33.39517 | -70.79618 | 1564 ft | 5 kts | 78° |
| 2026-04-24 02:24 | -33.39484 | -70.79584 | 1564 ft | 8 kts | 13° |
| 2026-04-24 02:25 | -33.39438 | -70.79585 | 1564 ft | 7 kts | 356° |
| 2026-04-24 02:25 | -33.39388 | -70.79589 | 1564 ft | 8 kts | 356° |
| 2026-04-24 02:25 | -33.39339 | -70.79619 | 1564 ft | 9 kts | 298° |
| 2026-04-24 02:25 | -33.39336 | -70.79698 | 1564 ft | 11 kts | 267° |
| 2026-04-24 02:26 | -33.39340 | -70.79792 | 1565 ft | 12 kts | 267° |
| 2026-04-24 02:26 | -33.39344 | -70.79898 | 1565 ft | 13 kts | 271° |
| 2026-04-24 02:26 | -33.39319 | -70.80008 | 1565 ft | 15 kts | 308° |
| 2026-04-24 02:26 | -33.39228 | -70.80058 | 1566 ft | 15 kts | 356° |
| 2026-04-24 02:27 | -33.39117 | -70.80067 | 1566 ft | 17 kts | 356° |
| 2026-04-24 02:27 | -33.38996 | -70.80074 | 1567 ft | 18 kts | 356° |
| 2026-04-24 02:27 | -33.38866 | -70.80082 | 1567 ft | 20 kts | 358° |
| 2026-04-24 02:27 | -33.38724 | -70.80090 | 1567 ft | 22 kts | 356° |
| 2026-04-24 02:28 | -33.38566 | -70.80100 | 1567 ft | 23 kts | 358° |
| 2026-04-24 02:28 | -33.38399 | -70.80103 | 1566 ft | 25 kts | 358° |
| 2026-04-24 02:28 | -33.38220 | -70.80113 | 1566 ft | 26 kts | 356° |
| 2026-04-24 02:28 | -33.38033 | -70.80123 | 1566 ft | 28 kts | 357° |
| 2026-04-24 02:29 | -33.37839 | -70.80134 | 1566 ft | 27 kts | 358° |
| 2026-04-24 02:29 | -33.37645 | -70.80146 | 1566 ft | 28 kts | 356° |
| 2026-04-24 02:29 | -33.37466 | -70.80154 | 1566 ft | 22 kts | 356° |
| 2026-04-24 02:29 | -33.37311 | -70.80163 | 1567 ft | 23 kts | 357° |
| 2026-04-24 02:30 | -33.37163 | -70.80173 | 1567 ft | 13 kts | 350° |
| 2026-04-24 02:30 | -33.37107 | -70.80235 | 1568 ft | 10 kts | 289° |
| 2026-04-24 02:30 | -33.37104 | -70.80253 | 1569 ft | 0 kts | 277° |
| 2026-04-24 02:33 | -33.37102 | -70.80275 | 1571 ft | 6 kts | 272° |
| 2026-04-24 02:33 | -33.37106 | -70.80304 | 1572 ft | 2 kts | 256° |
| 2026-04-24 02:33 | -33.37128 | -70.80350 | 1574 ft | 12 kts | 227° |
| 2026-04-24 02:33 | -33.37210 | -70.80376 | 1573 ft | 13 kts | 178° |
| 2026-04-24 02:34 | -33.37437 | -70.80362 | 1574 ft | 63 kts | 177° |
| 2026-04-24 02:34 | -33.38076 | -70.80329 | 1571 ft | 118 kts | 177° |
| 2026-04-24 02:34 | -33.39047 | -70.80277 | 1574 ft | 160 kts | 177° |
| 2026-04-24 02:34 | -33.40248 | -70.80204 | 1833 ft | 177 kts | 176° |
| 2026-04-24 02:35 | -33.41465 | -70.80139 | 2494 ft | 174 kts | 177° |
| 2026-04-24 02:35 | -33.42696 | -70.80082 | 3018 ft | 179 kts | 178° |
| 2026-04-24 02:35 | -33.43949 | -70.80024 | 3529 ft | 182 kts | 177° |
| 2026-04-24 02:35 | -33.45207 | -70.80007 | 4015 ft | 185 kts | 186° |
| 2026-04-24 02:36 | -33.46476 | -70.80298 | 4537 ft | 187 kts | 195° |
| 2026-04-24 02:36 | -33.47693 | -70.80841 | 5064 ft | 188 kts | 206° |
| 2026-04-24 02:36 | -33.48804 | -70.81664 | 5572 ft | 188 kts | 218° |
| 2026-04-24 02:36 | -33.49762 | -70.82736 | 6049 ft | 191 kts | 230° |
| 2026-04-24 02:37 | -33.50563 | -70.84115 | 6227 ft | 213 kts | 243° |
| 2026-04-24 02:37 | -33.51142 | -70.85848 | 6381 ft | 237 kts | 257° |
| 2026-04-24 02:37 | -33.51371 | -70.87888 | 6642 ft | 259 kts | 271° |
| 2026-04-24 02:37 | -33.51119 | -70.90101 | 7049 ft | 275 kts | 288° |
| 2026-04-24 02:38 | -33.50350 | -70.92178 | 7735 ft | 279 kts | 303° |
| 2026-04-24 02:38 | -33.49092 | -70.93950 | 8504 ft | 281 kts | 320° |
| 2026-04-24 02:38 | -33.47449 | -70.95219 | 9291 ft | 283 kts | 336° |
| 2026-04-24 02:38 | -33.45636 | -70.96145 | 10072 ft | 285 kts | 337° |
| 2026-04-24 02:39 | -33.43794 | -70.97083 | 10598 ft | 296 kts | 336° |
| 2026-04-24 02:39 | -33.41830 | -70.98087 | 10763 ft | 318 kts | 336° |
| 2026-04-24 02:39 | -33.39750 | -70.99127 | 11208 ft | 328 kts | 339° |
| 2026-04-24 02:39 | -33.37557 | -70.99954 | 11824 ft | 333 kts | 345° |
| 2026-04-24 02:40 | -33.35267 | -71.00474 | 12486 ft | 337 kts | 352° |
| 2026-04-24 02:40 | -33.32948 | -71.00665 | 13122 ft | 341 kts | 358° |
| 2026-04-24 02:40 | -33.30564 | -71.00518 | 13782 ft | 346 kts | 5° |
| 2026-04-24 02:40 | -33.28177 | -71.00019 | 14379 ft | 351 kts | 12° |
| 2026-04-24 02:41 | -33.25827 | -70.99166 | 14953 ft | 355 kts | 19° |
| 2026-04-24 02:41 | -33.23558 | -70.97955 | 15514 ft | 360 kts | 26° |
| 2026-04-24 02:41 | -33.21404 | -70.96381 | 16047 ft | 365 kts | 33° |
| 2026-04-24 02:41 | -33.19343 | -70.94584 | 16592 ft | 369 kts | 34° |
| 2026-04-24 02:42 | -33.17255 | -70.92786 | 17140 ft | 372 kts | 33° |
| 2026-04-24 02:42 | -33.15139 | -70.90983 | 17673 ft | 375 kts | 33° |
| 2026-04-24 02:42 | -33.13004 | -70.89169 | 18224 ft | 379 kts | 33° |
| 2026-04-24 02:42 | -33.10873 | -70.87359 | 18718 ft | 382 kts | 33° |
| 2026-04-24 02:43 | -33.08699 | -70.85513 | 19192 ft | 386 kts | 33° |
| 2026-04-24 02:43 | -33.06502 | -70.83647 | 19687 ft | 389 kts | 32° |
| 2026-04-24 02:43 | -33.04289 | -70.81764 | 20163 ft | 393 kts | 33° |
| 2026-04-24 02:43 | -33.02067 | -70.79833 | 20650 ft | 397 kts | 33° |
| 2026-04-24 02:44 | -32.99845 | -70.77862 | 21120 ft | 400 kts | 34° |
| 2026-04-24 02:44 | -32.97608 | -70.75859 | 21588 ft | 404 kts | 33° |
| 2026-04-24 02:44 | -32.95355 | -70.73840 | 22057 ft | 407 kts | 33° |
| 2026-04-24 02:44 | -32.93054 | -70.71943 | 22511 ft | 408 kts | 26° |
| 2026-04-24 02:45 | -32.90488 | -70.70513 | 22955 ft | 407 kts | 15° |
| 2026-04-24 02:45 | -32.87762 | -70.69672 | 23406 ft | 405 kts | 4° |
| 2026-04-24 02:45 | -32.84964 | -70.69381 | 23849 ft | 404 kts | 358° |
| 2026-04-24 02:45 | -32.82146 | -70.69206 | 24239 ft | 407 kts | 359° |
| 2026-04-24 02:46 | -32.79315 | -70.69024 | 24639 ft | 409 kts | 359° |
| 2026-04-24 02:46 | -32.76466 | -70.68833 | 25034 ft | 411 kts | 359° |
| 2026-04-24 02:46 | -32.73604 | -70.68641 | 25426 ft | 413 kts | 358° |
| 2026-04-24 02:46 | -32.70731 | -70.68447 | 25798 ft | 415 kts | 358° |
| 2026-04-24 02:47 | -32.67838 | -70.68250 | 26164 ft | 417 kts | 358° |
| 2026-04-24 02:47 | -32.64931 | -70.68051 | 26537 ft | 419 kts | 358° |
| 2026-04-24 02:47 | -32.62013 | -70.67856 | 26905 ft | 422 kts | 358° |
| 2026-04-24 02:47 | -32.59113 | -70.67666 | 27256 ft | 424 kts | 358° |
| 2026-04-24 02:48 | -32.56167 | -70.67472 | 27606 ft | 426 kts | 358° |
| 2026-04-24 02:48 | -32.53200 | -70.67277 | 27943 ft | 428 kts | 358° |
| 2026-04-24 02:48 | -32.50215 | -70.67080 | 28240 ft | 431 kts | 358° |
| 2026-04-24 02:48 | -32.47216 | -70.66882 | 28598 ft | 432 kts | 358° |
| 2026-04-24 02:49 | -32.44203 | -70.66684 | 28978 ft | 434 kts | 358° |
| 2026-04-24 02:49 | -32.41183 | -70.66486 | 29321 ft | 437 kts | 358° |
| 2026-04-24 02:49 | -32.38139 | -70.66287 | 29670 ft | 439 kts | 358° |
| 2026-04-24 02:49 | -32.35083 | -70.66087 | 30055 ft | 440 kts | 358° |
| 2026-04-24 02:50 | -32.32077 | -70.65887 | 30494 ft | 438 kts | 358° |
| 2026-04-24 02:50 | -32.29037 | -70.65681 | 30889 ft | 437 kts | 357° |
| 2026-04-24 02:50 | -32.25999 | -70.65475 | 31288 ft | 437 kts | 357° |
| 2026-04-24 02:50 | -32.22970 | -70.65273 | 31686 ft | 436 kts | 357° |
| 2026-04-24 02:51 | -32.19947 | -70.65073 | 32082 ft | 435 kts | 356° |
| 2026-04-24 02:51 | -32.16931 | -70.64876 | 32453 ft | 434 kts | 356° |
| 2026-04-24 02:51 | -32.13923 | -70.64681 | 32841 ft | 433 kts | 356° |
| 2026-04-24 02:51 | -32.10919 | -70.64485 | 33253 ft | 432 kts | 356° |
| 2026-04-24 02:52 | -32.07924 | -70.64286 | 33634 ft | 431 kts | 355° |
| 2026-04-24 02:52 | -32.04970 | -70.64093 | 34004 ft | 430 kts | 355° |
| 2026-04-24 02:52 | -32.01992 | -70.63899 | 34348 ft | 429 kts | 355° |
| 2026-04-24 02:52 | -31.99008 | -70.63704 | 34564 ft | 429 kts | 355° |
| 2026-04-24 02:53 | -31.96025 | -70.63508 | 34800 ft | 429 kts | 354° |
| 2026-04-24 02:53 | -31.93051 | -70.63312 | 35108 ft | 427 kts | 354° |
| 2026-04-24 02:53 | -31.90088 | -70.63142 | 35412 ft | 425 kts | 353° |
| 2026-04-24 02:53 | -31.87139 | -70.63007 | 35706 ft | 423 kts | 353° |
| 2026-04-24 02:54 | -31.84198 | -70.62893 | 35996 ft | 422 kts | 352° |
| 2026-04-24 02:54 | -31.81259 | -70.62788 | 36164 ft | 423 kts | 352° |
| 2026-04-24 02:54 | -31.75397 | -70.62568 | 36210 ft | 425 kts | 352° |
| 2026-04-24 02:55 | -31.69479 | -70.62313 | 36215 ft | 426 kts | 352° |
| 2026-04-24 02:55 | -31.63559 | -70.62041 | 36220 ft | 425 kts | 352° |
| 2026-04-24 02:56 | -31.57644 | -70.61784 | 36219 ft | 425 kts | 351° |
| 2026-04-24 02:56 | -31.51768 | -70.61532 | 36230 ft | 427 kts | 352° |
| 2026-04-24 02:57 | -31.45832 | -70.61280 | 36233 ft | 427 kts | 351° |
| 2026-04-24 02:57 | -31.39898 | -70.61029 | 36230 ft | 426 kts | 351° |
| 2026-04-24 02:58 | -31.33963 | -70.60748 | 36241 ft | 432 kts | 354° |
| 2026-04-24 02:58 | -31.27983 | -70.59466 | 36228 ft | 442 kts | 360° |
| 2026-04-24 02:59 | -31.21978 | -70.58036 | 36197 ft | 439 kts | 360° |
| 2026-04-24 02:59 | -31.15977 | -70.56621 | 36221 ft | 441 kts | 359° |
| 2026-04-24 03:00 | -31.09973 | -70.55221 | 36218 ft | 440 kts | 1° |
| 2026-04-24 03:00 | -31.04015 | -70.53833 | 36206 ft | 439 kts | 358° |
| 2026-04-24 03:01 | -30.98026 | -70.52429 | 36214 ft | 439 kts | 359° |
| 2026-04-24 03:01 | -30.92061 | -70.51029 | 36222 ft | 438 kts | 358° |
| 2026-04-24 03:02 | -30.86092 | -70.49641 | 36223 ft | 437 kts | 358° |
| 2026-04-24 03:02 | -30.80176 | -70.48264 | 36184 ft | 433 kts | 357° |
| 2026-04-24 03:03 | -30.74272 | -70.46882 | 36202 ft | 434 kts | 357° |
| 2026-04-24 03:03 | -30.68339 | -70.45514 | 36211 ft | 435 kts | 357° |
| 2026-04-24 03:04 | -30.62399 | -70.44142 | 36221 ft | 435 kts | 357° |
| 2026-04-24 03:04 | -30.56472 | -70.42769 | 36226 ft | 433 kts | 356° |
| 2026-04-24 03:05 | -30.50594 | -70.41416 | 36241 ft | 433 kts | 356° |
| 2026-04-24 03:05 | -30.44688 | -70.40051 | 36241 ft | 432 kts | 356° |
| 2026-04-24 03:06 | -30.38800 | -70.38691 | 36238 ft | 432 kts | 356° |
| 2026-04-24 03:06 | -30.32905 | -70.37326 | 36261 ft | 433 kts | 355° |
| 2026-04-24 03:07 | -30.27055 | -70.35973 | 36235 ft | 429 kts | 355° |
| 2026-04-24 03:07 | -30.21248 | -70.34629 | 36217 ft | 425 kts | 355° |
| 2026-04-24 03:08 | -30.12497 | -70.32646 | 36242 ft | 428 kts | 355° |
| 2026-04-24 03:09 | -30.06659 | -70.31304 | 36243 ft | 428 kts | 355° |
| 2026-04-24 03:09 | -30.00872 | -70.29974 | 36229 ft | 427 kts | 354° |
| 2026-04-24 03:10 | -29.95063 | -70.28643 | 36221 ft | 418 kts | 354° |
| 2026-04-24 03:10 | -29.89344 | -70.27327 | 36254 ft | 422 kts | 354° |
| 2026-04-24 03:11 | -29.83576 | -70.26019 | 36245 ft | 421 kts | 355° |
| 2026-04-24 03:11 | -29.77859 | -70.24716 | 36248 ft | 421 kts | 354° |
| 2026-04-24 03:12 | -29.72081 | -70.23411 | 36276 ft | 424 kts | 354° |
| 2026-04-24 03:12 | -29.66323 | -70.22094 | 36274 ft | 422 kts | 354° |
| 2026-04-24 03:13 | -29.60552 | -70.20791 | 36298 ft | 424 kts | 355° |
| 2026-04-24 03:13 | -29.54771 | -70.19477 | 36309 ft | 423 kts | 354° |
| 2026-04-24 03:14 | -29.49040 | -70.18174 | 36303 ft | 422 kts | 354° |
| 2026-04-24 03:14 | -29.43272 | -70.16868 | 36313 ft | 422 kts | 354° |
| 2026-04-24 03:15 | -29.37510 | -70.15571 | 36296 ft | 421 kts | 355° |
| 2026-04-24 03:15 | -29.34696 | -70.14919 | 36312 ft | 409 kts | 354° |
| 2026-04-24 03:15 | -29.31907 | -70.14281 | 36304 ft | 409 kts | 354° |
| 2026-04-24 03:16 | -29.26262 | -70.13042 | 36305 ft | 417 kts | 354° |
| 2026-04-24 03:16 | -29.20573 | -70.11778 | 36298 ft | 425 kts | 354° |
| 2026-04-24 03:16 | -29.17666 | -70.11123 | 36429 ft | 425 kts | 354° |
| 2026-04-24 03:17 | -29.14773 | -70.10458 | 36832 ft | 423 kts | 355° |
| 2026-04-24 03:17 | -29.11899 | -70.09795 | 37241 ft | 420 kts | 354° |
| 2026-04-24 03:17 | -29.09038 | -70.09144 | 37617 ft | 417 kts | 354° |
| 2026-04-24 03:17 | -29.06199 | -70.08504 | 37925 ft | 415 kts | 354° |
| 2026-04-24 03:18 | -29.03372 | -70.07872 | 38201 ft | 413 kts | 354° |
| 2026-04-24 03:18 | -28.97778 | -70.06633 | 38272 ft | 411 kts | 354° |
| 2026-04-24 03:19 | -28.92177 | -70.05384 | 38267 ft | 410 kts | 354° |
| 2026-04-24 03:19 | -28.86620 | -70.04418 | 38269 ft | 380 kts | 339° |
| 2026-04-24 03:19 | -28.84158 | -70.05022 | 38263 ft | 352 kts | 326° |
| 2026-04-24 03:20 | -28.81849 | -70.05976 | 38255 ft | 354 kts | 327° |
| 2026-04-24 03:20 | -28.77227 | -70.07812 | 38251 ft | 355 kts | 327° |
| 2026-04-24 03:21 | -28.72543 | -70.09608 | 38226 ft | 355 kts | 328° |
| 2026-04-24 03:21 | -28.67849 | -70.11393 | 38213 ft | 356 kts | 328° |
| 2026-04-24 03:22 | -28.63158 | -70.13186 | 38204 ft | 356 kts | 328° |
| 2026-04-24 03:22 | -28.58466 | -70.14979 | 38187 ft | 357 kts | 330° |
| 2026-04-24 03:22 | -28.56033 | -70.15613 | 38185 ft | 371 kts | 337° |
| 2026-04-24 03:23 | -28.53400 | -70.15809 | 38187 ft | 389 kts | 346° |
| 2026-04-24 03:23 | -28.50648 | -70.15482 | 38174 ft | 408 kts | 355° |
| 2026-04-24 03:23 | -28.47851 | -70.14842 | 38175 ft | 410 kts | 355° |
| 2026-04-24 03:24 | -28.42266 | -70.13648 | 38175 ft | 407 kts | 353° |
| 2026-04-24 03:24 | -28.36688 | -70.12603 | 38169 ft | 406 kts | 353° |
| 2026-04-24 03:25 | -28.31143 | -70.11590 | 38170 ft | 406 kts | 353° |
| 2026-04-24 03:25 | -28.25638 | -70.10544 | 38174 ft | 402 kts | 353° |
| 2026-04-24 03:26 | -28.20057 | -70.09490 | 38163 ft | 411 kts | 354° |
| 2026-04-24 03:26 | -28.15320 | -70.08599 | 38161 ft | 420 kts | 354° |
| 2026-04-24 03:27 | -28.09533 | -70.07491 | 38155 ft | 423 kts | 355° |
| 2026-04-24 03:27 | -28.02790 | -70.06186 | 38147 ft | 423 kts | 355° |
| 2026-04-24 03:28 | -27.97931 | -70.05253 | 38143 ft | 423 kts | 355° |
| 2026-04-24 03:28 | -27.92179 | -70.03682 | 38148 ft | 452 kts | 12° |
| 2026-04-24 03:28 | -27.89375 | -70.01939 | 38157 ft | 463 kts | 15° |
| 2026-04-24 03:29 | -27.86599 | -70.00124 | 38153 ft | 460 kts | 15° |
| 2026-04-24 03:29 | -27.81037 | -69.96467 | 38146 ft | 464 kts | 16° |
| 2026-04-24 03:30 | -27.74561 | -69.92203 | 38156 ft | 464 kts | 16° |
| 2026-04-24 03:30 | -27.69916 | -69.89148 | 38156 ft | 464 kts | 16° |
| 2026-04-24 03:31 | -27.64329 | -69.85481 | 38159 ft | 465 kts | 16° |
| 2026-04-24 03:31 | -27.58736 | -69.81824 | 38154 ft | 464 kts | 16° |
| 2026-04-24 03:32 | -27.53116 | -69.78245 | 38170 ft | 457 kts | 11° |
| 2026-04-24 03:32 | -27.50212 | -69.76999 | 38171 ft | 438 kts | 1° |
| 2026-04-24 03:32 | -27.47318 | -69.76164 | 38171 ft | 434 kts | 0° |
| 2026-04-24 03:33 | -27.41454 | -69.74517 | 38170 ft | 435 kts | 0° |
| 2026-04-24 03:33 | -27.35590 | -69.72858 | 38177 ft | 435 kts | 0° |
| 2026-04-24 03:34 | -27.29717 | -69.71186 | 38176 ft | 436 kts | 0° |
| 2026-04-24 03:34 | -27.23847 | -69.69516 | 38155 ft | 436 kts | 0° |
| 2026-04-24 03:35 | -27.17994 | -69.67866 | 38184 ft | 437 kts | 1° |
| 2026-04-24 03:35 | -27.12090 | -69.66203 | 38196 ft | 438 kts | 1° |
| 2026-04-24 03:36 | -27.06193 | -69.64531 | 38185 ft | 437 kts | 1° |
| 2026-04-24 03:36 | -27.00331 | -69.62871 | 38186 ft | 438 kts | 1° |
| 2026-04-24 03:37 | -26.94431 | -69.61207 | 38175 ft | 437 kts | 1° |
| 2026-04-24 03:37 | -26.88541 | -69.59554 | 38182 ft | 436 kts | 1° |
| 2026-04-24 03:38 | -26.82637 | -69.57898 | 38184 ft | 438 kts | 1° |
| 2026-04-24 03:38 | -26.76745 | -69.56246 | 38199 ft | 440 kts | 1° |
| 2026-04-24 03:39 | -26.70809 | -69.54584 | 38200 ft | 440 kts | 1° |
| 2026-04-24 03:39 | -26.64864 | -69.52920 | 38202 ft | 441 kts | 1° |
| 2026-04-24 03:40 | -26.57954 | -69.50975 | 38208 ft | 442 kts | 2° |
| 2026-04-24 03:40 | -26.52989 | -69.49586 | 38207 ft | 442 kts | 2° |
| 2026-04-24 03:41 | -26.47024 | -69.47920 | 38196 ft | 442 kts | 2° |
| 2026-04-24 03:41 | -26.41048 | -69.46250 | 38209 ft | 443 kts | 2° |
| 2026-04-24 03:42 | -26.35071 | -69.44584 | 38211 ft | 443 kts | 2° |
| 2026-04-24 03:42 | -26.29088 | -69.42921 | 38212 ft | 443 kts | 2° |
| 2026-04-24 03:43 | -26.23142 | -69.41274 | 38217 ft | 444 kts | 2° |
| 2026-04-24 03:43 | -26.17156 | -69.39611 | 38214 ft | 444 kts | 2° |
| 2026-04-24 03:44 | -26.11166 | -69.37942 | 38212 ft | 444 kts | 2° |
| 2026-04-24 03:44 | -26.05179 | -69.36276 | 38215 ft | 444 kts | 2° |
| 2026-04-24 03:45 | -25.99223 | -69.34627 | 38225 ft | 444 kts | 2° |
| 2026-04-24 03:45 | -25.93230 | -69.32971 | 38226 ft | 444 kts | 2° |
| 2026-04-24 03:46 | -25.87240 | -69.31319 | 38230 ft | 444 kts | 3° |
| 2026-04-24 03:46 | -25.81246 | -69.29664 | 38234 ft | 444 kts | 3° |
| 2026-04-24 03:47 | -25.75290 | -69.28021 | 38241 ft | 444 kts | 3° |
| 2026-04-24 03:47 | -25.69300 | -69.26371 | 38243 ft | 444 kts | 3° |
| 2026-04-24 03:48 | -25.63307 | -69.24718 | 38252 ft | 444 kts | 3° |
| 2026-04-24 03:48 | -25.57314 | -69.23094 | 38254 ft | 441 kts | 1° |
| 2026-04-24 03:49 | -25.51317 | -69.21892 | 38258 ft | 436 kts | 358° |
| 2026-04-24 03:49 | -25.45323 | -69.20967 | 38255 ft | 435 kts | 357° |
| 2026-04-24 03:50 | -25.39361 | -69.20024 | 38254 ft | 436 kts | 358° |
| 2026-04-24 03:50 | -25.33361 | -69.18984 | 38260 ft | 437 kts | 359° |
| 2026-04-24 03:51 | -25.27352 | -69.17907 | 38265 ft | 437 kts | 359° |
| 2026-04-24 03:51 | -25.21353 | -69.16848 | 38266 ft | 436 kts | 359° |
| 2026-04-24 03:52 | -25.15354 | -69.15800 | 38256 ft | 437 kts | 359° |
| 2026-04-24 03:52 | -25.09390 | -69.14757 | 38263 ft | 437 kts | 359° |
| 2026-04-24 03:53 | -25.03388 | -69.13710 | 38258 ft | 437 kts | 359° |
| 2026-04-24 03:53 | -24.97379 | -69.12663 | 38250 ft | 437 kts | 359° |
| 2026-04-24 03:54 | -24.91373 | -69.11623 | 38253 ft | 437 kts | 359° |
| 2026-04-24 03:54 | -24.85360 | -69.10583 | 38235 ft | 437 kts | 360° |
| 2026-04-24 03:55 | -24.79401 | -69.09550 | 38224 ft | 436 kts | 360° |
| 2026-04-24 03:55 | -24.73401 | -69.08498 | 38220 ft | 437 kts | 0° |
| 2026-04-24 03:56 | -24.67398 | -69.07416 | 38214 ft | 437 kts | 0° |
| 2026-04-24 03:56 | -24.61394 | -69.06339 | 38209 ft | 437 kts | 0° |
| 2026-04-24 03:57 | -24.55431 | -69.05269 | 38206 ft | 437 kts | 0° |
| 2026-04-24 03:57 | -24.49425 | -69.04208 | 38202 ft | 437 kts | 0° |
| 2026-04-24 03:58 | -24.43427 | -69.03153 | 38202 ft | 436 kts | 1° |
| 2026-04-24 03:58 | -24.37429 | -69.02083 | 38198 ft | 437 kts | 1° |
| 2026-04-24 03:59 | -24.31477 | -69.01028 | 38189 ft | 436 kts | 1° |
| 2026-04-24 03:59 | -24.25484 | -68.99970 | 38180 ft | 436 kts | 1° |
| 2026-04-24 04:00 | -24.19488 | -68.98910 | 38179 ft | 436 kts | 1° |
| 2026-04-24 04:00 | -24.13503 | -68.97853 | 38176 ft | 436 kts | 1° |
| 2026-04-24 04:01 | -24.07576 | -68.96808 | 38149 ft | 431 kts | 1° |
| 2026-04-24 04:01 | -24.01679 | -68.95758 | 38152 ft | 428 kts | 1° |
| 2026-04-24 04:02 | -23.95807 | -68.94729 | 37846 ft | 427 kts | 1° |
| 2026-04-24 04:02 | -23.92866 | -68.94217 | 37583 ft | 428 kts | 1° |
| 2026-04-24 04:02 | -23.89931 | -68.93702 | 37191 ft | 427 kts | 1° |
| 2026-04-24 04:02 | -23.86991 | -68.93185 | 36562 ft | 428 kts | 1° |
| 2026-04-24 04:03 | -23.84085 | -68.92673 | 35914 ft | 430 kts | 2° |
| 2026-04-24 04:03 | -23.81082 | -68.92145 | 35238 ft | 433 kts | 2° |
| 2026-04-24 04:03 | -23.78125 | -68.91627 | 34507 ft | 438 kts | 2° |
| 2026-04-24 04:03 | -23.75096 | -68.91099 | 33620 ft | 445 kts | 2° |
| 2026-04-24 04:04 | -23.72029 | -68.90561 | 33013 ft | 444 kts | 2° |
| 2026-04-24 04:04 | -23.68995 | -68.90023 | 32525 ft | 440 kts | 2° |
| 2026-04-24 04:04 | -23.65975 | -68.89487 | 32000 ft | 438 kts | 2° |
| 2026-04-24 04:04 | -23.62975 | -68.88955 | 31483 ft | 436 kts | 2° |
| 2026-04-24 04:05 | -23.59985 | -68.88428 | 30952 ft | 434 kts | 2° |
| 2026-04-24 04:05 | -23.57013 | -68.87910 | 30440 ft | 432 kts | 2° |
| 2026-04-24 04:05 | -23.54055 | -68.87397 | 29865 ft | 430 kts | 2° |
| 2026-04-24 04:05 | -23.51154 | -68.86891 | 29371 ft | 426 kts | 3° |
| 2026-04-24 04:06 | -23.48234 | -68.86380 | 28840 ft | 423 kts | 3° |
| 2026-04-24 04:06 | -23.45338 | -68.85873 | 28332 ft | 420 kts | 3° |
| 2026-04-24 04:06 | -23.42462 | -68.85368 | 27835 ft | 417 kts | 3° |
| 2026-04-24 04:06 | -23.39607 | -68.84869 | 27344 ft | 414 kts | 3° |
| 2026-04-24 04:07 | -23.36769 | -68.84373 | 26853 ft | 412 kts | 3° |
| 2026-04-24 04:07 | -23.33942 | -68.83877 | 26367 ft | 410 kts | 4° |
| 2026-04-24 04:07 | -23.31134 | -68.83359 | 25907 ft | 409 kts | 4° |
| 2026-04-24 04:07 | -23.28375 | -68.82828 | 25448 ft | 408 kts | 4° |
| 2026-04-24 04:08 | -23.25586 | -68.82277 | 24996 ft | 406 kts | 5° |
| 2026-04-24 04:08 | -23.22809 | -68.81724 | 24535 ft | 405 kts | 5° |
| 2026-04-24 04:08 | -23.20034 | -68.81177 | 24092 ft | 405 kts | 5° |
| 2026-04-24 04:08 | -23.17267 | -68.80637 | 23629 ft | 404 kts | 5° |
| 2026-04-24 04:09 | -23.14503 | -68.80104 | 23126 ft | 402 kts | 5° |
| 2026-04-24 04:09 | -23.11758 | -68.79577 | 22678 ft | 400 kts | 5° |
| 2026-04-24 04:09 | -23.09019 | -68.79052 | 22205 ft | 399 kts | 5° |
| 2026-04-24 04:09 | -23.06331 | -68.78536 | 21734 ft | 397 kts | 5° |
| 2026-04-24 04:10 | -23.03618 | -68.78011 | 21257 ft | 395 kts | 6° |
| 2026-04-24 04:10 | -23.00912 | -68.77486 | 20756 ft | 394 kts | 6° |
| 2026-04-24 04:10 | -22.98219 | -68.76963 | 20273 ft | 393 kts | 6° |
| 2026-04-24 04:11 | -22.92877 | -68.75767 | 19371 ft | 389 kts | 9° |
| 2026-04-24 04:11 | -22.90278 | -68.75114 | 19253 ft | 377 kts | 9° |
| 2026-04-24 04:11 | -22.87770 | -68.74473 | 19143 ft | 364 kts | 9° |
| 2026-04-24 04:11 | -22.85371 | -68.73865 | 19025 ft | 353 kts | 9° |
| 2026-04-24 04:12 | -22.83012 | -68.73280 | 18855 ft | 344 kts | 8° |
| 2026-04-24 04:12 | -22.80693 | -68.72717 | 18568 ft | 340 kts | 8° |
| 2026-04-24 04:12 | -22.78388 | -68.72163 | 18218 ft | 338 kts | 9° |
| 2026-04-24 04:12 | -22.76100 | -68.71616 | 17845 ft | 336 kts | 9° |
| 2026-04-24 04:13 | -22.73824 | -68.71073 | 17484 ft | 334 kts | 9° |
| 2026-04-24 04:13 | -22.71567 | -68.70533 | 17128 ft | 331 kts | 9° |
| 2026-04-24 04:13 | -22.69324 | -68.69993 | 16760 ft | 329 kts | 10° |
| 2026-04-24 04:13 | -22.67105 | -68.69459 | 16102 ft | 337 kts | 10° |
| 2026-04-24 04:14 | -22.64769 | -68.68900 | 15252 ft | 350 kts | 11° |
| 2026-04-24 04:14 | -22.62353 | -68.68322 | 14395 ft | 362 kts | 11° |
| 2026-04-24 04:14 | -22.59839 | -68.67930 | 13561 ft | 368 kts | 5° |
| 2026-04-24 04:14 | -22.57281 | -68.67685 | 12972 ft | 367 kts | 4° |
| 2026-04-24 04:15 | -22.54744 | -68.67516 | 12438 ft | 364 kts | 359° |
| 2026-04-24 04:15 | -22.52309 | -68.68100 | 11965 ft | 358 kts | 332° |
| 2026-04-24 04:15 | -22.50455 | -68.69782 | 11815 ft | 344 kts | 304° |
| 2026-04-24 04:15 | -22.49601 | -68.72065 | 11845 ft | 327 kts | 277° |
| 2026-04-24 04:16 | -22.49617 | -68.74454 | 11874 ft | 311 kts | 263° |
| 2026-04-24 04:16 | -22.50060 | -68.76673 | 11891 ft | 292 kts | 245° |
| 2026-04-24 04:16 | -22.51203 | -68.78352 | 11904 ft | 267 kts | 218° |
| 2026-04-24 04:16 | -22.52790 | -68.79237 | 11777 ft | 251 kts | 192° |
| 2026-04-24 04:17 | -22.54469 | -68.79224 | 11614 ft | 240 kts | 160° |
| 2026-04-24 04:17 | -22.55859 | -68.78367 | 11527 ft | 222 kts | 140° |
| 2026-04-24 04:17 | -22.56694 | -68.77109 | 11464 ft | 202 kts | 106° |
| 2026-04-24 04:17 | -22.56868 | -68.75675 | 11451 ft | 186 kts | 88° |
| 2026-04-24 04:18 | -22.56587 | -68.74354 | 11453 ft | 179 kts | 59° |
| 2026-04-24 04:18 | -22.55760 | -68.73391 | 11354 ft | 174 kts | 28° |
| 2026-04-24 04:18 | -22.54618 | -68.73048 | 11087 ft | 172 kts | 357° |
| 2026-04-24 04:18 | -22.53471 | -68.73393 | 10769 ft | 175 kts | 326° |
| 2026-04-24 04:19 | -22.52649 | -68.74338 | 10516 ft | 173 kts | 297° |
| 2026-04-24 04:19 | -22.52090 | -68.75494 | 10316 ft | 174 kts | 297° |
| 2026-04-24 04:19 | -22.51522 | -68.76650 | 10119 ft | 174 kts | 298° |
| 2026-04-24 04:19 | -22.51017 | -68.77818 | 9899 ft | 174 kts | 287° |
| 2026-04-24 04:20 | -22.50772 | -68.79091 | 9692 ft | 173 kts | 273° |
| 2026-04-24 04:20 | -22.50689 | -68.80390 | 9466 ft | 173 kts | 274° |
| 2026-04-24 04:20 | -22.50601 | -68.81684 | 9209 ft | 172 kts | 274° |
| 2026-04-24 04:20 | -22.50517 | -68.82971 | 8957 ft | 172 kts | 273° |
| 2026-04-24 04:21 | -22.50432 | -68.84260 | 8719 ft | 172 kts | 273° |
| 2026-04-24 04:21 | -22.50344 | -68.85546 | 8389 ft | 172 kts | 272° |
| 2026-04-24 04:21 | -22.50249 | -68.86837 | 8186 ft | 172 kts | 273° |
| 2026-04-24 04:21 | -22.50160 | -68.88130 | 7865 ft | 178 kts | 271° |
| 2026-04-24 04:22 | -22.50076 | -68.89443 | 7602 ft | 170 kts | 272° |
| 2026-04-24 04:22 | -22.50007 | -68.90497 | 7528 ft | 96 kts | 274° |
| 2026-04-24 04:22 | -22.49985 | -68.90792 | 7502 ft | 8 kts | 274° |
| 2026-04-24 04:22 | -22.49950 | -68.90796 | 7507 ft | 7 kts | 25° |
| 2026-04-24 04:23 | -22.49889 | -68.90785 | 7500 ft | 11 kts | 5° |
| 2026-04-24 04:23 | -22.49840 | -68.90781 | 7500 ft | 5 kts | 3° |
| 2026-04-24 04:23 | -22.49803 | -68.90778 | 7504 ft | 6 kts | 3° |
| 2026-04-24 04:23 | -22.49758 | -68.90775 | 7500 ft | 9 kts | 3° |
| 2026-04-24 04:24 | -22.49694 | -68.90771 | 7501 ft | 5 kts | 5° |
| 2026-04-24 04:24 | -22.49660 | -68.90765 | 7497 ft | 5 kts | 13° |
| 2026-04-24 04:24 | -22.49626 | -68.90757 | 7510 ft | 5 kts | 8° |
| 2026-04-24 04:24 | -22.49597 | -68.90755 | 7500 ft | 0 kts | 3° |